sensor_id;sensor_type;location;lat;lon;timestamp;pressure;altitude;pressure_sealevel;temperature;humidity
79584;BME280;69053;57.338;18.700;2023-07-29T00:00:23;100476.44;;;10.47;83.71
79584;BME280;69053;57.338;18.700;2023-07-29T00:45:43;100461.66;;;10.37;86.03
79584;BME280;69053;57.338;18.700;2023-07-29T00:55:10;100468.06;;;10.10;85.87
79584;BME280;69053;57.338;18.700;2023-07-29T00:58:20;100466.44;;;10.03;85.24
79584;BME280;69053;57.338;18.700;2023-07-29T01:04:36;100464.84;;;9.88;84.99
79584;BME280;69053;57.338;18.700;2023-07-29T01:08:38;100454.63;;;9.84;85.29
79584;BME280;69053;57.338;18.700;2023-07-29T01:12:21;100459.00;;;9.85;85.40
79584;BME280;69053;57.338;18.700;2023-07-29T01:15:40;100461.28;;;9.88;85.84
79584;BME280;69053;57.338;18.700;2023-07-29T01:18:47;100467.16;;;9.85;85.48
79584;BME280;69053;57.338;18.700;2023-07-29T01:21:52;100464.03;;;9.81;85.89
79584;BME280;69053;57.338;18.700;2023-07-29T01:24:55;100455.50;;;9.77;85.64
79584;BME280;69053;57.338;18.700;2023-07-29T01:28:00;100459.50;;;9.75;85.92
79584;BME280;69053;57.338;18.700;2023-07-29T01:31:10;100451.38;;;9.68;85.09
79584;BME280;69053;57.338;18.700;2023-07-29T01:34:29;100459.56;;;9.62;85.31
79584;BME280;69053;57.338;18.700;2023-07-29T01:40:46;100457.31;;;9.45;85.19
79584;BME280;69053;57.338;18.700;2023-07-29T01:43:49;100458.19;;;9.39;85.22
79584;BME280;69053;57.338;18.700;2023-07-29T01:46:56;100456.50;;;9.31;84.95
79584;BME280;69053;57.338;18.700;2023-07-29T01:59:31;100462.63;;;9.20;85.25
79584;BME280;69053;57.338;18.700;2023-07-29T02:09:31;100467.91;;;9.01;85.38
79584;BME280;69053;57.338;18.700;2023-07-29T02:12:32;100464.97;;;8.96;85.15
79584;BME280;69053;57.338;18.700;2023-07-29T02:15:33;100468.72;;;8.95;85.41
79584;BME280;69053;57.338;18.700;2023-07-29T02:18:34;100463.75;;;8.92;84.66
79584;BME280;69053;57.338;18.700;2023-07-29T02:21:34;100471.69;;;8.87;84.55
79584;BME280;69053;57.338;18.700;2023-07-29T02:24:35;100468.75;;;8.82;84.78
79584;BME280;69053;57.338;18.700;2023-07-29T02:27:36;100468.13;;;8.80;84.82
79584;BME280;69053;57.338;18.700;2023-07-29T02:30:41;100471.91;;;8.79;85.49
79584;BME280;69053;57.338;18.700;2023-07-29T02:33:42;100482.16;;;8.77;84.94
79584;BME280;69053;57.338;18.700;2023-07-29T02:36:42;100485.88;;;8.76;85.18
79584;BME280;69053;57.338;18.700;2023-07-29T02:39:43;100490.50;;;8.75;84.92
79584;BME280;69053;57.338;18.700;2023-07-29T02:42:44;100497.16;;;8.73;85.01
79584;BME280;69053;57.338;18.700;2023-07-29T02:45:46;100504.06;;;8.69;84.75
79584;BME280;69053;57.338;18.700;2023-07-29T02:48:49;100505.31;;;8.66;84.87
79584;BME280;69053;57.338;18.700;2023-07-29T02:52:09;100499.47;;;8.62;85.81
79584;BME280;69053;57.338;18.700;2023-07-29T02:55:10;100501.75;;;8.66;85.23
79584;BME280;69053;57.338;18.700;2023-07-29T02:58:12;100503.44;;;8.67;85.45
79584;BME280;69053;57.338;18.700;2023-07-29T03:01:13;100515.97;;;8.68;84.90
79584;BME280;69053;57.338;18.700;2023-07-29T03:04:13;100508.44;;;8.70;85.57
79584;BME280;69053;57.338;18.700;2023-07-29T03:20:17;100526.63;;;8.82;85.45
79584;BME280;69053;57.338;18.700;2023-07-29T03:23:24;100521.00;;;8.84;85.89
79584;BME280;69053;57.338;18.700;2023-07-29T03:26:28;100522.22;;;8.95;86.07
79584;BME280;69053;57.338;18.700;2023-07-29T03:29:31;100520.53;;;9.07;87.21
79584;BME280;69053;57.338;18.700;2023-07-29T03:32:34;100528.47;;;9.22;87.04
79584;BME280;69053;57.338;18.700;2023-07-29T03:35:34;100525.28;;;9.38;88.37
79584;BME280;69053;57.338;18.700;2023-07-29T03:38:39;100533.00;;;9.55;87.76
79584;BME280;69053;57.338;18.700;2023-07-29T03:41:42;100525.84;;;9.67;88.39
79584;BME280;69053;57.338;18.700;2023-07-29T03:44:43;100533.16;;;9.73;87.38
79584;BME280;69053;57.338;18.700;2023-07-29T03:47:45;100529.53;;;9.80;87.68
79584;BME280;69053;57.338;18.700;2023-07-29T03:50:45;100529.75;;;9.85;86.78
79584;BME280;69053;57.338;18.700;2023-07-29T03:53:47;100521.53;;;9.98;87.51
79584;BME280;69053;57.338;18.700;2023-07-29T04:00:02;100532.56;;;10.48;89.04
79584;BME280;69053;57.338;18.700;2023-07-29T04:03:09;100530.91;;;10.73;89.71
79584;BME280;69053;57.338;18.700;2023-07-29T04:06:15;100537.88;;;10.94;89.63
79584;BME280;69053;57.338;18.700;2023-07-29T04:09:23;100534.13;;;11.13;90.00
79584;BME280;69053;57.338;18.700;2023-07-29T04:12:32;100534.00;;;11.26;89.88
79584;BME280;69053;57.338;18.700;2023-07-29T04:15:33;100523.88;;;11.34;89.29
79584;BME280;69053;57.338;18.700;2023-07-29T04:18:34;100523.78;;;11.40;88.67
79584;BME280;69053;57.338;18.700;2023-07-29T04:21:34;100533.34;;;11.50;89.14
79584;BME280;69053;57.338;18.700;2023-07-29T04:24:35;100534.81;;;11.71;88.89
79584;BME280;69053;57.338;18.700;2023-07-29T04:27:36;100540.22;;;11.89;89.52
79584;BME280;69053;57.338;18.700;2023-07-29T04:30:36;100536.38;;;12.15;89.88
79584;BME280;69053;57.338;18.700;2023-07-29T04:33:40;100535.59;;;12.38;90.00
79584;BME280;69053;57.338;18.700;2023-07-29T04:36:41;100537.34;;;12.63;89.56
79584;BME280;69053;57.338;18.700;2023-07-29T04:39:44;100532.16;;;12.85;89.95
79584;BME280;69053;57.338;18.700;2023-07-29T04:42:48;100534.56;;;13.05;89.21
79584;BME280;69053;57.338;18.700;2023-07-29T04:45:49;100535.50;;;13.23;89.05
79584;BME280;69053;57.338;18.700;2023-07-29T04:48:58;100536.59;;;13.34;88.12
79584;BME280;69053;57.338;18.700;2023-07-29T04:52:00;100537.06;;;13.42;87.64
79584;BME280;69053;57.338;18.700;2023-07-29T04:55:07;100540.72;;;13.60;88.61
79584;BME280;69053;57.338;18.700;2023-07-29T04:58:24;100539.03;;;13.82;88.22
79584;BME280;69053;57.338;18.700;2023-07-29T05:22:01;100551.75;;;15.09;85.94
79584;BME280;69053;57.338;18.700;2023-07-29T05:35:03;100539.47;;;16.11;82.67
79584;BME280;69053;57.338;18.700;2023-07-29T05:58:10;100542.72;;;17.28;77.93
79584;BME280;69053;57.338;18.700;2023-07-29T06:05:00;100540.41;;;17.52;75.45
79584;BME280;69053;57.338;18.700;2023-07-29T06:32:52;100543.59;;;18.85;66.25
79584;BME280;69053;57.338;18.700;2023-07-29T06:42:27;100542.22;;;19.24;62.58
79584;BME280;69053;57.338;18.700;2023-07-29T06:45:40;100549.09;;;19.37;62.01
79584;BME280;69053;57.338;18.700;2023-07-29T07:16:55;100544.63;;;20.27;57.16
79584;BME280;69053;57.338;18.700;2023-07-29T07:24:04;100538.91;;;20.57;56.83
79584;BME280;69053;57.338;18.700;2023-07-29T07:51:41;100539.13;;;21.30;51.34
79584;BME280;69053;57.338;18.700;2023-07-29T12:08:33;100521.31;;;26.39;34.69
79584;BME280;69053;57.338;18.700;2023-07-29T12:14:48;100520.81;;;26.54;33.02
79584;BME280;69053;57.338;18.700;2023-07-29T12:28:09;100515.59;;;25.87;34.95
79584;BME280;69053;57.338;18.700;2023-07-29T12:35:52;100515.13;;;25.93;36.12
79584;BME280;69053;57.338;18.700;2023-07-29T12:39:32;100523.25;;;26.30;35.89
79584;BME280;69053;57.338;18.700;2023-07-29T12:46:18;100499.47;;;26.76;34.12
79584;BME280;69053;57.338;18.700;2023-07-29T12:49:48;100513.88;;;26.95;31.72
79584;BME280;69053;57.338;18.700;2023-07-29T12:55:54;100506.97;;;26.06;33.32
79584;BME280;69053;57.338;18.700;2023-07-29T12:59:01;100510.06;;;25.95;33.10
79584;BME280;69053;57.338;18.700;2023-07-29T13:02:23;100495.34;;;26.21;34.28
79584;BME280;69053;57.338;18.700;2023-07-29T13:11:47;100517.78;;;27.29;34.29
79584;BME280;69053;57.338;18.700;2023-07-29T13:15:15;100506.84;;;27.45;35.37
79584;BME280;69053;57.338;18.700;2023-07-29T13:18:24;100509.03;;;27.40;36.52
79584;BME280;69053;57.338;18.700;2023-07-29T20:30:00;100496.06;;;16.73;80.50
79584;BME280;69053;57.338;18.700;2023-07-29T20:33:08;100489.16;;;16.71;80.69
79584;BME280;69053;57.338;18.700;2023-07-29T20:36:08;100494.38;;;16.67;81.08
79584;BME280;69053;57.338;18.700;2023-07-29T20:39:17;100500.97;;;16.66;81.00
79584;BME280;69053;57.338;18.700;2023-07-29T20:42:18;100496.56;;;16.65;81.69
79584;BME280;69053;57.338;18.700;2023-07-29T20:45:18;100491.63;;;16.67;81.86
79584;BME280;69053;57.338;18.700;2023-07-29T20:48:22;100487.53;;;16.69;81.68
79584;BME280;69053;57.338;18.700;2023-07-29T20:51:29;100494.66;;;16.71;81.96
79584;BME280;69053;57.338;18.700;2023-07-29T20:54:30;100491.34;;;16.68;82.51
79584;BME280;69053;57.338;18.700;2023-07-29T20:57:31;100486.66;;;16.69;82.27
79584;BME280;69053;57.338;18.700;2023-07-29T21:00:31;100485.03;;;16.68;83.04
79584;BME280;69053;57.338;18.700;2023-07-29T21:03:32;100485.03;;;16.68;83.31
79584;BME280;69053;57.338;18.700;2023-07-29T21:06:35;100492.44;;;16.67;83.40
79584;BME280;69053;57.338;18.700;2023-07-29T21:09:35;100489.38;;;16.64;82.97
79584;BME280;69053;57.338;18.700;2023-07-29T21:12:39;100492.41;;;16.62;83.07
79584;BME280;69053;57.338;18.700;2023-07-29T21:15:53;100486.59;;;16.59;83.31
79584;BME280;69053;57.338;18.700;2023-07-29T21:18:57;100493.19;;;16.58;83.64
79584;BME280;69053;57.338;18.700;2023-07-29T21:21:58;100496.72;;;16.53;83.95
79584;BME280;69053;57.338;18.700;2023-07-29T21:25:01;100495.34;;;16.50;83.68
79584;BME280;69053;57.338;18.700;2023-07-29T21:28:02;100495.03;;;16.47;84.02
79584;BME280;69053;57.338;18.700;2023-07-29T21:31:03;100499.94;;;16.45;83.82
79584;BME280;69053;57.338;18.700;2023-07-29T21:34:07;100493.88;;;16.43;83.90
79584;BME280;69053;57.338;18.700;2023-07-29T21:37:07;100491.63;;;16.40;84.31
79584;BME280;69053;57.338;18.700;2023-07-29T21:40:09;100488.59;;;16.36;84.26
79584;BME280;69053;57.338;18.700;2023-07-29T21:43:10;100486.94;;;16.35;84.66
79584;BME280;69053;57.338;18.700;2023-07-29T21:46:11;100478.97;;;16.34;84.67
79584;BME280;69053;57.338;18.700;2023-07-29T21:49:12;100481.16;;;16.31;85.30
79584;BME280;69053;57.338;18.700;2023-07-29T21:52:13;100491.53;;;16.29;85.03
79584;BME280;69053;57.338;18.700;2023-07-29T21:55:14;100489.06;;;16.28;85.30
79584;BME280;69053;57.338;18.700;2023-07-29T21:58:14;100494.84;;;16.26;85.53
79584;BME280;69053;57.338;18.700;2023-07-29T22:01:15;100479.69;;;16.24;85.74
79584;BME280;69053;57.338;18.700;2023-07-29T22:04:16;100478.56;;;16.20;85.88
79584;BME280;69053;57.338;18.700;2023-07-29T22:07:16;100479.63;;;16.19;85.89
79584;BME280;69053;57.338;18.700;2023-07-29T22:10:18;100490.88;;;16.17;86.21
79584;BME280;69053;57.338;18.700;2023-07-29T22:13:18;100481.25;;;16.15;86.27
79584;BME280;69053;57.338;18.700;2023-07-29T22:16:19;100483.13;;;16.14;86.38
79584;BME280;69053;57.338;18.700;2023-07-29T22:19:20;100491.66;;;16.12;86.20
79584;BME280;69053;57.338;18.700;2023-07-29T22:22:21;100475.19;;;16.12;86.61
79584;BME280;69053;57.338;18.700;2023-07-29T22:25:35;100481.19;;;16.09;86.69
79584;BME280;69053;57.338;18.700;2023-07-29T22:28:36;100469.09;;;16.10;86.61
79584;BME280;69053;57.338;18.700;2023-07-29T22:31:38;100471.84;;;16.10;86.82
79584;BME280;69053;57.338;18.700;2023-07-29T22:34:39;100478.19;;;16.11;86.77
79584;BME280;69053;57.338;18.700;2023-07-29T22:37:39;100471.84;;;16.10;87.00
79584;BME280;69053;57.338;18.700;2023-07-29T22:40:40;100470.75;;;16.11;86.68
79584;BME280;69053;57.338;18.700;2023-07-29T22:43:40;100471.34;;;16.13;86.33
79584;BME280;69053;57.338;18.700;2023-07-29T22:46:45;100475.50;;;16.16;86.42
79584;BME280;69053;57.338;18.700;2023-07-29T22:49:47;100471.63;;;16.17;86.39
79584;BME280;69053;57.338;18.700;2023-07-29T22:52:48;100470.81;;;16.17;86.28
79584;BME280;69053;57.338;18.700;2023-07-29T22:55:49;100473.56;;;16.17;86.65
79584;BME280;69053;57.338;18.700;2023-07-29T22:58:50;100465.31;;;16.17;86.96
79584;BME280;69053;57.338;18.700;2023-07-29T23:01:50;100455.16;;;16.17;86.84
79584;BME280;69053;57.338;18.700;2023-07-29T23:04:59;100458.19;;;16.21;86.69
79584;BME280;69053;57.338;18.700;2023-07-29T23:08:00;100459.88;;;16.22;86.99
79584;BME280;69053;57.338;18.700;2023-07-29T23:11:02;100462.13;;;16.25;86.67
79584;BME280;69053;57.338;18.700;2023-07-29T23:14:02;100451.13;;;16.25;86.52
79584;BME280;69053;57.338;18.700;2023-07-29T23:17:03;100457.94;;;16.22;86.14
79584;BME280;69053;57.338;18.700;2023-07-29T23:20:04;100451.63;;;16.22;86.40
79584;BME280;69053;57.338;18.700;2023-07-29T23:23:10;100452.44;;;16.22;86.41
79584;BME280;69053;57.338;18.700;2023-07-29T23:26:11;100445.00;;;16.18;86.44
79584;BME280;69053;57.338;18.700;2023-07-29T23:29:12;100453.75;;;16.15;86.99
79584;BME280;69053;57.338;18.700;2023-07-29T23:32:12;100446.28;;;16.10;87.05
79584;BME280;69053;57.338;18.700;2023-07-29T23:35:16;100444.91;;;16.07;87.72
79584;BME280;69053;57.338;18.700;2023-07-29T23:38:17;100443.75;;;16.03;87.84
79584;BME280;69053;57.338;18.700;2023-07-29T23:41:21;100450.34;;;16.02;88.37
79584;BME280;69053;57.338;18.700;2023-07-29T23:44:22;100461.34;;;16.02;88.16
79584;BME280;69053;57.338;18.700;2023-07-29T23:47:23;100453.91;;;16.03;88.21
79584;BME280;69053;57.338;18.700;2023-07-29T23:50:24;100458.06;;;16.05;88.15
79584;BME280;69053;57.338;18.700;2023-07-29T23:53:24;100455.03;;;16.07;88.13
79584;BME280;69053;57.338;18.700;2023-07-29T23:56:25;100462.53;;;16.11;88.07
79584;BME280;69053;57.338;18.700;2023-07-29T23:59:26;100466.34;;;16.10;87.71
